createdAt,value
2022-08-22T00:02:51.280Z,22.719999
2022-08-22T00:02:51.780Z,21.879999
2022-08-22T04:35:45.521Z,17.43
2022-08-22T04:38:00.101Z,17.469999
2022-08-22T04:40:14.399Z,17.58
2022-08-22T04:42:32.535Z,17.74
2022-08-22T04:44:43.152Z,17.93
2022-08-22T04:46:57.678Z,18.120001
2022-08-22T04:49:12.211Z,18.32
2022-08-22T04:51:26.551Z,18.5
2022-08-22T04:53:40.953Z,18.67
2022-08-22T04:55:55.401Z,18.82
2022-08-22T04:58:12.816Z,18.950001
2022-08-22T05:00:27.518Z,19.08
2022-08-22T05:02:41.530Z,19.190001
2022-08-22T05:04:57.907Z,19.290001
2022-08-22T05:07:12.360Z,19.389999
2022-08-22T05:09:26.691Z,19.48
2022-08-22T05:11:41.055Z,19.559999
2022-08-22T05:13:55.810Z,19.629999
2022-08-22T05:16:09.850Z,19.68
2022-08-22T05:18:24.249Z,19.719999
2022-08-22T05:20:40.582Z,19.74
2022-08-22T05:22:55.960Z,19.75
2022-08-22T05:25:11.298Z,19.74
2022-08-22T05:27:25.769Z,19.73
2022-08-22T05:29:40.175Z,19.709999
2022-08-22T05:31:54.567Z,19.690001
2022-08-22T05:34:09.013Z,19.68
2022-08-22T05:36:23.287Z,19.66
2022-08-22T05:38:37.767Z,19.66
2022-08-22T05:40:52.078Z,19.66
2022-08-22T05:43:07.518Z,19.66
2022-08-22T05:45:21.937Z,19.67
2022-08-22T05:47:36.393Z,19.690001
2022-08-22T05:49:50.692Z,19.709999
2022-08-22T05:52:05.141Z,19.73
2022-08-22T05:54:19.443Z,19.76
2022-08-22T05:56:35.841Z,19.809999
2022-08-22T05:58:50.282Z,19.85
2022-08-22T06:01:04.666Z,19.9
2022-08-22T06:03:19.100Z,19.950001
2022-08-22T06:05:33.508Z,20.01
2022-08-22T06:07:47.942Z,20.09
2022-08-22T06:10:02.323Z,20.190001
2022-08-22T06:12:18.268Z,20.299999
2022-08-22T06:14:32.741Z,20.42
2022-08-22T06:16:49.496Z,20.540001
2022-08-22T06:19:04.833Z,20.639999
2022-08-22T06:21:22.170Z,20.709999
2022-08-22T06:23:37.517Z,20.75
2022-08-22T06:25:52.572Z,20.799999
2022-08-22T06:28:06.987Z,20.84
2022-08-22T06:30:21.433Z,20.870001
2022-08-22T06:32:44.640Z,20.91
2022-08-22T06:34:53.182Z,20.950001
2022-08-22T06:37:07.580Z,20.969999
2022-08-22T06:39:22.003Z,21
2022-08-22T06:41:36.340Z,21.02
2022-08-22T06:43:50.743Z,21.040001
2022-08-22T06:46:05.088Z,21.059999
2022-08-22T06:48:20.470Z,21.1
2022-08-22T06:50:34.822Z,21.15
2022-08-22T06:52:48.179Z,21.190001
2022-08-22T06:55:02.526Z,21.23
2022-08-22T06:57:17.911Z,21.27
2022-08-22T06:59:32.260Z,21.309999
2022-08-22T07:01:46.678Z,21.34
2022-08-22T07:04:01.005Z,21.379999
2022-08-22T07:06:15.397Z,21.41
2022-08-22T07:08:29.743Z,21.440001
2022-08-22T07:10:47.063Z,21.450001
2022-08-22T07:13:01.506Z,21.48
2022-08-22T07:15:15.861Z,21.5
2022-08-22T07:17:30.263Z,21.52
2022-08-22T07:19:47.557Z,21.549999
2022-08-22T07:22:01.965Z,21.57
2022-08-22T07:24:16.327Z,21.59
2022-08-22T07:26:30.671Z,21.6
2022-08-22T07:28:50.991Z,21.620001
2022-08-22T07:31:02.336Z,21.639999
2022-08-22T07:33:26.188Z,21.639999
2022-08-22T07:35:34.015Z,21.65
2022-08-22T07:37:48.422Z,21.66
2022-08-22T07:40:02.849Z,21.66
2022-08-22T07:42:17.150Z,21.66
2022-08-22T07:44:33.504Z,21.65
2022-08-22T07:46:47.877Z,21.639999
2022-08-22T07:49:09.336Z,21.639999
2022-08-22T07:51:18.642Z,21.65
2022-08-22T07:53:33.001Z,21.66
2022-08-22T07:55:49.567Z,21.68
2022-08-22T07:58:01.742Z,21.690001
2022-08-22T08:00:16.094Z,21.709999
2022-08-22T08:02:30.473Z,21.73
2022-08-22T08:04:44.925Z,21.76
2022-08-22T08:06:59.297Z,21.790001
2022-08-22T08:09:13.743Z,21.83
2022-08-22T08:11:28.085Z,21.870001
2022-08-22T08:13:43.522Z,21.91
2022-08-22T08:15:57.966Z,21.959999
2022-08-22T08:18:12.445Z,22.01
2022-08-22T08:20:26.931Z,22.059999
2022-08-22T08:22:41.354Z,22.120001
2022-08-22T08:24:55.907Z,22.17
2022-08-22T08:27:11.339Z,22.219999
2022-08-22T08:29:25.741Z,22.280001
2022-08-22T08:31:43.276Z,22.34
2022-08-22T08:33:54.541Z,22.4
2022-08-22T08:36:08.903Z,22.469999
2022-08-22T08:38:23.321Z,22.530001
2022-08-22T08:40:37.653Z,22.610001
2022-08-22T08:42:55.011Z,22.700001
2022-08-22T08:45:09.414Z,22.790001
2022-08-22T08:47:23.778Z,22.9
2022-08-22T08:49:38.793Z,23.02
2022-08-22T08:51:52.437Z,23.139999
2022-08-22T08:54:06.812Z,23.25
2022-08-22T08:56:21.209Z,23.34
2022-08-22T08:58:35.673Z,23.4
2022-08-22T09:00:50.182Z,23.459999
2022-08-22T09:03:07.459Z,23.5
2022-08-22T09:05:24.794Z,23.540001
2022-08-22T09:07:39.533Z,23.59
2022-08-22T09:09:55.040Z,23.66
2022-08-22T09:12:09.361Z,23.74
2022-08-22T09:14:23.823Z,23.83
2022-08-22T09:16:38.233Z,23.93
2022-08-22T09:18:55.576Z,24.040001
2022-08-22T09:21:09.982Z,24.15
2022-08-22T09:23:27.368Z,24.299999
2022-08-22T09:25:42.757Z,24.469999
2022-08-22T09:27:58.324Z,24.610001
2022-08-22T09:30:12.537Z,24.700001
2022-08-22T09:32:28.034Z,24.76
2022-08-22T09:34:43.357Z,24.790001
2022-08-22T09:36:57.823Z,24.82
2022-08-22T09:39:12.114Z,24.84
2022-08-22T09:41:27.528Z,24.84
2022-08-22T09:43:44.202Z,24.83
2022-08-22T09:45:58.313Z,24.84
2022-08-22T09:48:12.761Z,24.860001
2022-08-22T09:50:29.464Z,24.92
2022-08-22T09:52:41.615Z,24.98
2022-08-22T09:54:56.035Z,25.030001
2022-08-22T09:57:10.436Z,25.08
2022-08-22T09:59:24.717Z,25.15
2022-08-22T10:01:42.195Z,25.18
2022-08-22T10:03:56.551Z,25.219999
2022-08-22T10:06:10.881Z,25.26
2022-08-22T10:08:26.494Z,25.309999
2022-08-22T10:10:40.576Z,25.360001
2022-08-22T10:12:55.031Z,25.41
2022-08-22T10:15:10.324Z,25.459999
2022-08-22T10:17:26.691Z,25.5
2022-08-22T10:19:42.104Z,25.57
2022-08-22T10:21:57.523Z,25.639999
2022-08-22T10:24:11.885Z,25.76
2022-08-22T10:26:29.252Z,25.889999
2022-08-22T10:28:46.647Z,26.049999
2022-08-22T10:31:01.068Z,26.17
2022-08-22T10:33:16.480Z,26.25
2022-08-22T10:35:34.324Z,26.299999
2022-08-22T10:37:50.283Z,26.4
2022-08-22T10:40:04.825Z,26.469999
2022-08-22T10:42:19.137Z,26.52
2022-08-22T10:44:35.501Z,26.559999
2022-08-22T10:46:50.903Z,26.559999
2022-08-22T10:49:08.142Z,26.540001
2022-08-22T10:51:22.705Z,26.540001
2022-08-22T10:53:38.189Z,26.559999
2022-08-22T10:55:52.621Z,26.610001
2022-08-22T10:58:06.986Z,26.73
2022-08-22T11:00:22.480Z,26.959999
2022-08-22T11:02:35.765Z,27.190001
2022-08-22T11:04:52.120Z,27.389999
2022-08-22T11:07:07.653Z,27.58
2022-08-22T11:09:21.342Z,27.709999
2022-08-22T11:11:37.740Z,27.790001
2022-08-22T11:13:52.139Z,27.82
2022-08-22T11:16:07.591Z,27.84
2022-08-22T11:18:22.022Z,27.84
2022-08-22T11:20:38.446Z,27.889999
2022-08-22T11:22:57.825Z,27.98
2022-08-22T11:25:08.299Z,28.129999
2022-08-22T11:27:25.351Z,28.280001
2022-08-22T11:29:41.143Z,28.459999
2022-08-22T11:31:55.386Z,28.549999
2022-08-22T11:34:12.777Z,28.6
2022-08-22T11:36:30.992Z,28.629999
2022-08-22T11:38:43.508Z,28.67
2022-08-22T11:40:57.918Z,28.66
2022-08-22T11:43:16.309Z,28.620001
2022-08-22T11:45:30.597Z,28.59
2022-08-22T11:47:47.004Z,28.58
2022-08-22T11:50:01.507Z,28.559999
2022-08-22T11:52:18.850Z,28.5
2022-08-22T11:54:34.224Z,28.440001
2022-08-22T11:56:51.541Z,28.379999
2022-08-22T11:59:05.979Z,28.35
2022-08-22T12:01:21.357Z,28.450001
2022-08-22T12:03:39.085Z,28.59
2022-08-22T12:05:53.541Z,28.690001
2022-08-22T12:08:07.863Z,28.82
2022-08-22T12:10:23.249Z,29.07
2022-08-22T12:12:37.639Z,29.32
2022-08-22T12:14:52.084Z,29.49
2022-08-22T12:17:06.538Z,29.59
2022-08-22T12:19:23.921Z,29.610001
2022-08-22T12:21:40.315Z,29.57
2022-08-22T12:23:56.768Z,29.5
2022-08-22T12:26:13.376Z,29.440001
2022-08-22T12:28:29.734Z,29.5
2022-08-22T12:30:44.113Z,29.68
2022-08-22T12:33:01.576Z,29.98
2022-08-22T12:35:16.988Z,30.18
2022-08-22T12:37:34.228Z,30.370001
2022-08-22T12:39:51.696Z,30.620001
2022-08-22T12:42:05.962Z,30.799999
2022-08-22T12:44:21.340Z,30.98
2022-08-22T12:46:35.703Z,31.059999
2022-08-22T12:48:53.021Z,31
2022-08-22T12:51:17.387Z,30.950001
2022-08-22T12:53:25.731Z,31.040001
2022-08-22T12:55:40.105Z,31.08
2022-08-22T12:57:54.494Z,31.049999
2022-08-22T13:00:08.898Z,31.02
2022-08-22T13:02:24.318Z,31
2022-08-22T13:04:39.709Z,30.99
2022-08-22T13:06:54.120Z,31.1
2022-08-22T13:09:09.949Z,31.15
2022-08-22T13:11:23.636Z,31.16
2022-08-22T13:13:38.551Z,31.24
2022-08-22T13:15:54.722Z,31.41
2022-08-22T13:18:29.046Z,31.639999
2022-08-22T13:20:28.442Z,31.879999
2022-08-22T13:22:45.281Z,32.139999
2022-08-22T13:25:00.175Z,32.380001
2022-08-22T13:27:16.499Z,32.59
2022-08-22T13:29:39.285Z,32.75
2022-08-22T13:31:47.241Z,32.84
2022-08-22T13:34:02.680Z,32.860001
2022-08-22T13:36:18.044Z,32.880001
2022-08-22T13:38:34.374Z,32.889999
2022-08-22T13:40:51.703Z,32.799999
2022-08-22T13:43:06.135Z,32.619999
2022-08-22T13:45:20.599Z,32.360001
2022-08-22T13:47:35.043Z,32.18
2022-08-22T13:49:50.408Z,32.049999
2022-08-22T13:52:04.881Z,31.98
2022-08-22T13:54:22.268Z,31.84
2022-08-22T13:56:37.647Z,31.709999
2022-08-22T13:58:54.993Z,31.540001
2022-08-22T14:01:09.378Z,31.299999
2022-08-22T14:03:24.712Z,31.059999
2022-08-22T14:05:39.078Z,30.870001
2022-08-22T14:07:53.440Z,30.76
2022-08-22T14:10:12.569Z,30.73
2022-08-22T14:12:25.154Z,30.700001
2022-08-22T14:14:42.499Z,30.68
2022-08-22T14:16:57.897Z,30.67
2022-08-22T14:19:13.319Z,30.67
2022-08-22T14:21:27.699Z,30.719999
2022-08-22T14:23:45.068Z,30.889999
2022-08-22T14:25:59.525Z,31.16
2022-08-22T14:28:14.842Z,31.42
2022-08-22T14:30:29.245Z,31.639999
2022-08-22T14:32:43.611Z,31.75
2022-08-22T14:34:59.566Z,31.74
2022-08-22T14:37:14.362Z,31.639999
2022-08-22T14:39:28.734Z,31.5
2022-08-22T14:41:52.265Z,31.34
2022-08-22T14:44:01.415Z,31.209999
2022-08-22T14:46:17.686Z,31.08
2022-08-22T14:48:36.443Z,30.959999
2022-08-22T14:50:50.363Z,30.84
2022-08-22T14:53:05.747Z,30.73
2022-08-22T14:55:21.162Z,30.67
2022-08-22T14:57:36.516Z,30.65
2022-08-22T14:59:50.904Z,30.66
2022-08-22T15:02:05.263Z,30.73
2022-08-22T15:04:19.640Z,30.790001
2022-08-22T15:06:35.937Z,30.83
2022-08-22T15:08:53.308Z,30.82
2022-08-22T15:11:07.718Z,30.780001
2022-08-22T15:13:22.224Z,30.74
2022-08-22T15:15:41.296Z,30.709999
2022-08-22T15:17:55.818Z,30.700001
2022-08-22T15:20:11.107Z,30.700001
2022-08-22T15:22:27.527Z,30.74
2022-08-22T15:24:41.061Z,30.85
2022-08-22T15:26:55.619Z,30.99
2022-08-22T15:29:11.773Z,31.059999
2022-08-22T15:31:27.172Z,31.08
2022-08-22T15:33:43.132Z,31.059999
2022-08-22T15:35:56.944Z,31.01
2022-08-22T15:38:13.030Z,30.940001
2022-08-22T15:40:25.638Z,30.83
2022-08-22T15:42:41.948Z,30.700001
2022-08-22T15:44:56.348Z,30.6
2022-08-22T15:47:11.817Z,30.530001
2022-08-22T15:49:29.009Z,30.469999
2022-08-22T15:51:43.430Z,30.5
2022-08-22T15:53:58.738Z,30.51
2022-08-22T15:56:16.094Z,30.530001
2022-08-22T15:58:30.430Z,30.59
2022-08-22T16:00:45.231Z,30.639999
2022-08-22T16:02:59.327Z,30.76
2022-08-22T16:05:13.551Z,30.889999
2022-08-22T16:07:28.021Z,31.110001
2022-08-22T16:09:42.666Z,31.280001
2022-08-22T16:11:57.790Z,31.469999
2022-08-22T16:14:12.149Z,31.559999
2022-08-22T16:16:28.657Z,31.68
2022-08-22T16:18:43.194Z,31.799999
2022-08-22T16:20:57.705Z,31.9
2022-08-22T16:23:12.066Z,31.959999
2022-08-22T16:25:27.663Z,31.940001
2022-08-22T16:27:42.490Z,31.9
2022-08-22T16:29:56.848Z,31.82
2022-08-22T16:32:11.231Z,31.68
2022-08-22T16:34:26.119Z,31.52
2022-08-22T16:36:40.064Z,31.35
2022-08-22T16:38:54.576Z,31.209999
2022-08-22T16:41:08.872Z,31.15
2022-08-22T16:43:23.379Z,31.09
2022-08-22T16:45:39.770Z,31.049999
2022-08-22T16:47:56.832Z,31.07
2022-08-22T16:50:08.592Z,31.07
2022-08-22T16:52:23.080Z,31.059999
2022-08-22T16:54:38.520Z,31
2022-08-22T16:56:52.962Z,30.889999
2022-08-22T16:59:22.269Z,30.719999
2022-08-22T17:01:25.421Z,30.52
2022-08-22T17:03:39.754Z,30.290001
2022-08-22T17:05:54.551Z,30.07
2022-08-22T17:08:08.809Z,29.860001
2022-08-22T17:10:24.133Z,29.66
2022-08-22T17:12:38.743Z,29.469999
2022-08-22T17:14:53.025Z,29.299999
2022-08-22T17:17:07.368Z,29.139999
2022-08-22T17:19:21.818Z,29
2022-08-22T17:21:36.247Z,28.879999
2022-08-22T17:23:53.704Z,28.76
2022-08-22T17:26:08.161Z,28.629999
2022-08-22T17:28:23.535Z,28.5
2022-08-22T17:30:40.859Z,28.370001
2022-08-22T17:32:58.977Z,28.24
2022-08-22T17:35:09.874Z,28.139999
2022-08-22T17:37:24.290Z,28.030001
2022-08-22T17:39:38.694Z,27.93
2022-08-22T17:41:53.200Z,27.84
2022-08-22T17:44:07.552Z,27.76
2022-08-22T17:46:21.903Z,27.690001
2022-08-22T17:48:36.305Z,27.620001
2022-08-22T17:50:50.835Z,27.540001
2022-08-22T17:53:05.253Z,27.459999
2022-08-22T17:55:20.654Z,27.360001
2022-08-22T17:57:35.074Z,27.27
2022-08-22T17:59:49.479Z,27.190001
2022-08-22T18:02:03.992Z,27.110001
2022-08-22T18:04:19.508Z,27.030001
2022-08-22T18:06:34.827Z,26.940001
2022-08-22T18:11:06.681Z,26.74
2022-08-22T18:13:21.091Z,26.67
2022-08-22T18:15:35.483Z,26.6
2022-08-22T18:17:50.169Z,26.52
2022-08-22T18:20:04.595Z,26.43
2022-08-22T18:22:19.044Z,26.34
2022-08-22T18:24:33.416Z,26.26
2022-08-22T18:26:47.776Z,26.190001
2022-08-22T18:29:02.241Z,26.129999
2022-08-22T18:31:16.611Z,26.059999
2022-08-22T18:33:31.224Z,25.99
2022-08-22T18:35:48.591Z,25.92
2022-08-22T18:38:03.357Z,25.85
2022-08-22T18:40:20.753Z,25.790001
2022-08-22T18:42:35.067Z,25.74
2022-08-22T18:44:49.481Z,25.68
2022-08-22T18:47:03.850Z,25.610001
2022-08-22T18:49:18.262Z,25.540001
2022-08-22T18:51:32.646Z,25.459999
2022-08-22T18:53:48.035Z,25.389999
2022-08-22T18:56:02.377Z,25.299999
2022-08-22T18:58:16.809Z,25.23
2022-08-22T19:00:31.157Z,25.16
2022-08-22T19:02:49.285Z,25.1
2022-08-22T19:05:03.030Z,25.059999
2022-08-22T19:07:17.415Z,25.030001
2022-08-22T19:09:31.837Z,25
2022-08-22T19:11:46.175Z,24.99
2022-08-22T19:14:00.718Z,24.98
2022-08-22T19:16:15.097Z,24.969999
2022-08-22T19:18:29.421Z,24.959999
2022-08-22T19:20:43.858Z,24.950001
2022-08-22T19:22:58.221Z,24.940001
2022-08-22T19:25:12.588Z,24.940001
2022-08-22T19:27:30.899Z,24.93
2022-08-22T19:29:41.361Z,24.91
2022-08-22T19:31:55.769Z,24.889999
2022-08-22T19:34:11.144Z,24.879999
2022-08-22T19:36:25.576Z,24.860001
2022-08-22T19:38:39.950Z,24.83
2022-08-22T19:40:54.319Z,24.76
2022-08-22T19:43:08.750Z,24.709999
2022-08-22T19:45:23.315Z,24.65
2022-08-22T19:47:37.710Z,24.6
2022-08-22T19:49:52.091Z,24.540001
2022-08-22T19:52:08.443Z,24.459999
2022-08-22T19:54:22.923Z,24.389999
2022-08-22T19:56:37.379Z,24.34
2022-08-22T19:58:51.687Z,24.309999
2022-08-22T20:01:06.272Z,24.299999
2022-08-22T20:03:20.894Z,24.290001
2022-08-22T20:05:35.273Z,24.27
2022-08-22T20:07:51.847Z,24.27
2022-08-22T20:10:06.295Z,24.280001
2022-08-22T20:12:20.651Z,24.27
2022-08-22T20:14:35.082Z,24.24
2022-08-22T20:16:49.481Z,24.209999
2022-08-22T20:19:07.537Z,24.17
2022-08-22T20:21:20.700Z,24.15
2022-08-22T20:23:36.093Z,24.15
2022-08-22T20:25:50.552Z,24.139999
2022-08-22T20:28:05.050Z,24.15
2022-08-22T20:30:19.454Z,24.15
2022-08-22T20:32:34.884Z,24.15
2022-08-22T20:34:49.334Z,24.129999
2022-08-22T20:37:23.589Z,24.1
2022-08-22T20:39:21.200Z,24.07
2022-08-22T20:41:35.896Z,24.049999
2022-08-22T20:43:50.043Z,24.030001
2022-08-22T20:46:04.538Z,24.01
2022-08-22T20:48:20.934Z,24
2022-08-22T20:50:35.481Z,24
2022-08-22T20:52:51.754Z,24
2022-08-22T20:55:04.392Z,23.99
2022-08-22T20:57:18.804Z,23.969999
2022-08-22T20:59:33.210Z,23.950001
2022-08-22T21:01:48.696Z,23.959999
2022-08-22T21:04:03.078Z,23.98
2022-08-22T21:06:18.573Z,23.99
2022-08-22T21:08:33.140Z,24.02
2022-08-22T21:10:48.008Z,24.040001
2022-08-22T21:13:01.874Z,24.040001
2022-08-22T21:15:16.367Z,24.040001
2022-08-22T21:17:33.585Z,24.049999
2022-08-22T21:19:47.196Z,24.059999
2022-08-22T21:22:03.575Z,24.08
2022-08-22T21:24:18.079Z,24.08
2022-08-22T21:26:32.551Z,24.059999
2022-08-22T21:28:46.944Z,24.040001
